sensor_id;sensor_type;location;lat;lon;timestamp;temperature;humidity
40085;DHT22;25786;51.504;7.344;2023-09-07T00:01:56;19.00;82.90
40085;DHT22;25786;51.504;7.344;2023-09-07T00:04:22;19.00;82.90
40085;DHT22;25786;51.504;7.344;2023-09-07T00:06:52;19.00;82.70
40085;DHT22;25786;51.504;7.344;2023-09-07T00:09:18;18.90;83.10
40085;DHT22;25786;51.504;7.344;2023-09-07T00:11:47;18.90;83.20
40085;DHT22;25786;51.504;7.344;2023-09-07T00:14:12;19.00;83.50
40085;DHT22;25786;51.504;7.344;2023-09-07T00:16:38;19.00;83.20
40085;DHT22;25786;51.504;7.344;2023-09-07T00:19:06;18.90;83.50
40085;DHT22;25786;51.504;7.344;2023-09-07T00:21:32;18.90;83.70
40085;DHT22;25786;51.504;7.344;2023-09-07T00:23:57;18.90;83.70
40085;DHT22;25786;51.504;7.344;2023-09-07T00:26:23;18.80;83.90
40085;DHT22;25786;51.504;7.344;2023-09-07T00:28:48;18.80;84.10
40085;DHT22;25786;51.504;7.344;2023-09-07T00:31:14;18.80;83.60
40085;DHT22;25786;51.504;7.344;2023-09-07T00:33:39;18.80;83.50
40085;DHT22;25786;51.504;7.344;2023-09-07T00:36:05;18.80;83.30
40085;DHT22;25786;51.504;7.344;2023-09-07T00:38:30;18.80;83.40
40085;DHT22;25786;51.504;7.344;2023-09-07T00:40:56;18.70;83.10
40085;DHT22;25786;51.504;7.344;2023-09-07T00:43:21;18.80;83.20
40085;DHT22;25786;51.504;7.344;2023-09-07T00:45:46;18.70;83.20
40085;DHT22;25786;51.504;7.344;2023-09-07T00:48:13;18.70;82.90
40085;DHT22;25786;51.504;7.344;2023-09-07T00:50:40;18.60;83.00
40085;DHT22;25786;51.504;7.344;2023-09-07T00:53:06;18.60;83.30
40085;DHT22;25786;51.504;7.344;2023-09-07T00:55:32;18.60;83.20
40085;DHT22;25786;51.504;7.344;2023-09-07T00:58:00;18.60;83.30
40085;DHT22;25786;51.504;7.344;2023-09-07T01:00:26;18.50;83.50
40085;DHT22;25786;51.504;7.344;2023-09-07T01:02:51;18.50;83.70
40085;DHT22;25786;51.504;7.344;2023-09-07T01:05:17;18.50;83.60
40085;DHT22;25786;51.504;7.344;2023-09-07T01:07:46;18.50;83.70
40085;DHT22;25786;51.504;7.344;2023-09-07T01:10:13;18.40;83.70
40085;DHT22;25786;51.504;7.344;2023-09-07T01:12:39;18.30;83.60
40085;DHT22;25786;51.504;7.344;2023-09-07T01:15:05;18.30;83.90
40085;DHT22;25786;51.504;7.344;2023-09-07T01:17:30;18.30;83.90
40085;DHT22;25786;51.504;7.344;2023-09-07T01:19:56;18.30;83.90
40085;DHT22;25786;51.504;7.344;2023-09-07T01:22:22;18.30;84.00
40085;DHT22;25786;51.504;7.344;2023-09-07T01:24:48;18.30;84.10
40085;DHT22;25786;51.504;7.344;2023-09-07T01:27:14;18.30;83.90
40085;DHT22;25786;51.504;7.344;2023-09-07T01:29:39;18.30;83.80
40085;DHT22;25786;51.504;7.344;2023-09-07T01:32:05;18.10;83.60
40085;DHT22;25786;51.504;7.344;2023-09-07T01:34:31;18.20;83.80
40085;DHT22;25786;51.504;7.344;2023-09-07T01:36:57;18.10;83.80
40085;DHT22;25786;51.504;7.344;2023-09-07T01:39:22;18.10;83.90
40085;DHT22;25786;51.504;7.344;2023-09-07T01:41:47;18.10;84.30
40085;DHT22;25786;51.504;7.344;2023-09-07T01:44:13;18.10;84.00
40085;DHT22;25786;51.504;7.344;2023-09-07T01:46:38;18.00;83.90
40085;DHT22;25786;51.504;7.344;2023-09-07T01:49:04;17.90;84.00
40085;DHT22;25786;51.504;7.344;2023-09-07T01:51:30;17.90;84.10
40085;DHT22;25786;51.504;7.344;2023-09-07T01:53:55;17.90;84.10
40085;DHT22;25786;51.504;7.344;2023-09-07T01:56:21;17.80;83.90
40085;DHT22;25786;51.504;7.344;2023-09-07T01:58:46;17.80;83.80
40085;DHT22;25786;51.504;7.344;2023-09-07T02:03:47;17.80;84.20
40085;DHT22;25786;51.504;7.344;2023-09-07T02:06:13;17.80;84.20
40085;DHT22;25786;51.504;7.344;2023-09-07T02:08:38;17.80;83.90
40085;DHT22;25786;51.504;7.344;2023-09-07T02:11:05;17.90;83.80
40085;DHT22;25786;51.504;7.344;2023-09-07T02:13:30;17.90;83.80
40085;DHT22;25786;51.504;7.344;2023-09-07T02:15:56;17.80;84.20
40085;DHT22;25786;51.504;7.344;2023-09-07T02:18:21;17.80;84.10
40085;DHT22;25786;51.504;7.344;2023-09-07T02:20:47;17.80;83.90
40085;DHT22;25786;51.504;7.344;2023-09-07T02:23:12;17.80;83.80
40085;DHT22;25786;51.504;7.344;2023-09-07T02:25:37;17.80;83.60
40085;DHT22;25786;51.504;7.344;2023-09-07T02:28:03;17.80;83.60
40085;DHT22;25786;51.504;7.344;2023-09-07T02:30:29;17.80;83.80
40085;DHT22;25786;51.504;7.344;2023-09-07T02:32:54;17.70;84.10
40085;DHT22;25786;51.504;7.344;2023-09-07T02:35:19;17.60;84.30
40085;DHT22;25786;51.504;7.344;2023-09-07T02:37:45;17.60;84.20
40085;DHT22;25786;51.504;7.344;2023-09-07T02:45:49;17.60;84.50
40085;DHT22;25786;51.504;7.344;2023-09-07T02:48:15;17.60;84.40
40085;DHT22;25786;51.504;7.344;2023-09-07T02:50:41;17.50;84.50
40085;DHT22;25786;51.504;7.344;2023-09-07T02:53:14;17.50;84.70
40085;DHT22;25786;51.504;7.344;2023-09-07T02:55:39;17.50;85.20
40085;DHT22;25786;51.504;7.344;2023-09-07T02:58:05;17.50;85.30
40085;DHT22;25786;51.504;7.344;2023-09-07T03:00:33;17.60;85.00
40085;DHT22;25786;51.504;7.344;2023-09-07T03:03:00;17.50;85.30
40085;DHT22;25786;51.504;7.344;2023-09-07T03:05:28;17.50;85.30
40085;DHT22;25786;51.504;7.344;2023-09-07T03:07:56;17.50;85.50
40085;DHT22;25786;51.504;7.344;2023-09-07T03:10:22;17.50;85.50
40085;DHT22;25786;51.504;7.344;2023-09-07T03:12:47;17.50;85.60
40085;DHT22;25786;51.504;7.344;2023-09-07T03:15:13;17.40;85.60
40085;DHT22;25786;51.504;7.344;2023-09-07T03:17:38;17.50;85.80
40085;DHT22;25786;51.504;7.344;2023-09-07T03:20:04;17.50;86.10
40085;DHT22;25786;51.504;7.344;2023-09-07T03:22:40;17.50;85.70
40085;DHT22;25786;51.504;7.344;2023-09-07T03:25:06;17.50;85.60
40085;DHT22;25786;51.504;7.344;2023-09-07T03:27:31;17.50;85.00
40085;DHT22;25786;51.504;7.344;2023-09-07T03:29:57;17.40;85.20
40085;DHT22;25786;51.504;7.344;2023-09-07T03:32:22;17.50;85.20
40085;DHT22;25786;51.504;7.344;2023-09-07T03:34:48;17.50;85.30
40085;DHT22;25786;51.504;7.344;2023-09-07T03:37:13;17.50;85.40
40085;DHT22;25786;51.504;7.344;2023-09-07T03:39:39;17.50;85.40
40085;DHT22;25786;51.504;7.344;2023-09-07T03:42:04;17.50;85.20
40085;DHT22;25786;51.504;7.344;2023-09-07T03:44:30;17.50;85.30
40085;DHT22;25786;51.504;7.344;2023-09-07T03:46:55;17.50;85.00
40085;DHT22;25786;51.504;7.344;2023-09-07T03:49:21;17.50;85.50
40085;DHT22;25786;51.504;7.344;2023-09-07T03:51:47;17.50;84.80
40085;DHT22;25786;51.504;7.344;2023-09-07T03:54:12;17.50;85.20
40085;DHT22;25786;51.504;7.344;2023-09-07T03:56:38;17.40;85.20
40085;DHT22;25786;51.504;7.344;2023-09-07T03:59:04;17.40;85.20
40085;DHT22;25786;51.504;7.344;2023-09-07T04:01:30;17.30;85.40
40085;DHT22;25786;51.504;7.344;2023-09-07T04:03:55;17.40;85.30
40085;DHT22;25786;51.504;7.344;2023-09-07T04:06:21;17.30;84.90
40085;DHT22;25786;51.504;7.344;2023-09-07T04:08:49;17.30;84.60
40085;DHT22;25786;51.504;7.344;2023-09-07T04:11:20;17.30;84.60
40085;DHT22;25786;51.504;7.344;2023-09-07T04:13:46;17.20;85.10
40085;DHT22;25786;51.504;7.344;2023-09-07T04:16:11;17.30;84.90
40085;DHT22;25786;51.504;7.344;2023-09-07T04:18:37;17.20;84.70
40085;DHT22;25786;51.504;7.344;2023-09-07T04:21:06;17.20;84.60
40085;DHT22;25786;51.504;7.344;2023-09-07T04:23:32;17.10;85.00
40085;DHT22;25786;51.504;7.344;2023-09-07T04:26:06;17.10;84.70
40085;DHT22;25786;51.504;7.344;2023-09-07T04:28:34;17.10;84.60
40085;DHT22;25786;51.504;7.344;2023-09-07T04:31:00;17.20;84.60
40085;DHT22;25786;51.504;7.344;2023-09-07T04:33:26;17.30;84.70
40085;DHT22;25786;51.504;7.344;2023-09-07T04:35:51;17.30;84.60
40085;DHT22;25786;51.504;7.344;2023-09-07T04:38:17;17.10;84.90
40085;DHT22;25786;51.504;7.344;2023-09-07T04:40:42;17.20;84.80
40085;DHT22;25786;51.504;7.344;2023-09-07T04:43:08;17.20;84.90
40085;DHT22;25786;51.504;7.344;2023-09-07T04:45:33;17.10;84.70
40085;DHT22;25786;51.504;7.344;2023-09-07T04:47:59;17.10;84.70
40085;DHT22;25786;51.504;7.344;2023-09-07T04:50:24;17.10;84.70
40085;DHT22;25786;51.504;7.344;2023-09-07T04:52:50;17.10;84.60
40085;DHT22;25786;51.504;7.344;2023-09-07T04:55:16;17.10;84.40
40085;DHT22;25786;51.504;7.344;2023-09-07T04:57:41;17.00;84.60
40085;DHT22;25786;51.504;7.344;2023-09-07T05:00:07;17.00;84.60
40085;DHT22;25786;51.504;7.344;2023-09-07T05:02:34;16.90;84.60
40085;DHT22;25786;51.504;7.344;2023-09-07T05:05:05;17.00;84.80
40085;DHT22;25786;51.504;7.344;2023-09-07T05:07:31;17.00;84.70
40085;DHT22;25786;51.504;7.344;2023-09-07T05:09:57;17.00;84.90
40085;DHT22;25786;51.504;7.344;2023-09-07T05:12:25;17.00;84.90
40085;DHT22;25786;51.504;7.344;2023-09-07T05:14:50;16.90;85.00
40085;DHT22;25786;51.504;7.344;2023-09-07T05:17:16;16.90;84.90
40085;DHT22;25786;51.504;7.344;2023-09-07T05:19:41;16.90;85.10
40085;DHT22;25786;51.504;7.344;2023-09-07T05:22:06;16.90;85.00
40085;DHT22;25786;51.504;7.344;2023-09-07T05:24:32;17.00;85.00
40085;DHT22;25786;51.504;7.344;2023-09-07T05:26:57;17.00;85.30
40085;DHT22;25786;51.504;7.344;2023-09-07T05:29:23;17.00;85.20
40085;DHT22;25786;51.504;7.344;2023-09-07T05:31:48;16.90;85.20
40085;DHT22;25786;51.504;7.344;2023-09-07T05:34:14;17.00;84.90
40085;DHT22;25786;51.504;7.344;2023-09-07T05:36:39;17.00;85.00
40085;DHT22;25786;51.504;7.344;2023-09-07T05:39:05;16.90;85.30
40085;DHT22;25786;51.504;7.344;2023-09-07T05:41:30;16.90;85.30
40085;DHT22;25786;51.504;7.344;2023-09-07T05:43:56;16.90;85.50
40085;DHT22;25786;51.504;7.344;2023-09-07T05:46:21;17.00;85.40
40085;DHT22;25786;51.504;7.344;2023-09-07T05:48:46;17.00;85.60
40085;DHT22;25786;51.504;7.344;2023-09-07T05:51:12;17.00;85.70
40085;DHT22;25786;51.504;7.344;2023-09-07T05:53:38;17.00;85.60
40085;DHT22;25786;51.504;7.344;2023-09-07T05:56:04;17.00;85.70
40085;DHT22;25786;51.504;7.344;2023-09-07T05:58:29;17.00;85.50
40085;DHT22;25786;51.504;7.344;2023-09-07T06:00:54;17.10;85.60
40085;DHT22;25786;51.504;7.344;2023-09-07T06:03:20;17.10;85.60
40085;DHT22;25786;51.504;7.344;2023-09-07T06:05:45;17.10;85.70
40085;DHT22;25786;51.504;7.344;2023-09-07T06:08:11;17.20;85.80
40085;DHT22;25786;51.504;7.344;2023-09-07T06:10:36;17.20;85.80
40085;DHT22;25786;51.504;7.344;2023-09-07T06:13:02;17.30;85.80
40085;DHT22;25786;51.504;7.344;2023-09-07T06:15:28;17.50;85.20
40085;DHT22;25786;51.504;7.344;2023-09-07T06:17:54;17.50;85.10
40085;DHT22;25786;51.504;7.344;2023-09-07T06:20:19;17.50;85.10
40085;DHT22;25786;51.504;7.344;2023-09-07T06:22:45;17.60;85.10
40085;DHT22;25786;51.504;7.344;2023-09-07T06:25:11;17.60;85.00
40085;DHT22;25786;51.504;7.344;2023-09-07T06:27:36;17.60;84.90
40085;DHT22;25786;51.504;7.344;2023-09-07T06:30:04;17.70;85.00
40085;DHT22;25786;51.504;7.344;2023-09-07T06:32:29;17.70;85.20
40085;DHT22;25786;51.504;7.344;2023-09-07T06:34:55;17.70;85.30
40085;DHT22;25786;51.504;7.344;2023-09-07T06:37:20;17.70;85.20
40085;DHT22;25786;51.504;7.344;2023-09-07T06:39:46;17.80;85.20
40085;DHT22;25786;51.504;7.344;2023-09-07T06:42:11;17.80;85.00
40085;DHT22;25786;51.504;7.344;2023-09-07T06:44:36;17.90;84.90
40085;DHT22;25786;51.504;7.344;2023-09-07T06:47:02;17.90;84.90
40085;DHT22;25786;51.504;7.344;2023-09-07T06:49:27;18.00;85.10
40085;DHT22;25786;51.504;7.344;2023-09-07T06:51:57;18.00;84.90
40085;DHT22;25786;51.504;7.344;2023-09-07T06:54:23;18.00;84.00
40085;DHT22;25786;51.504;7.344;2023-09-07T06:56:48;18.10;83.80
40085;DHT22;25786;51.504;7.344;2023-09-07T06:59:14;18.10;83.20
40085;DHT22;25786;51.504;7.344;2023-09-07T07:01:39;18.20;82.70
40085;DHT22;25786;51.504;7.344;2023-09-07T07:04:05;18.30;82.60
40085;DHT22;25786;51.504;7.344;2023-09-07T07:06:31;18.40;82.30
40085;DHT22;25786;51.504;7.344;2023-09-07T07:08:57;18.50;82.60
40085;DHT22;25786;51.504;7.344;2023-09-07T07:11:22;18.50;82.10
40085;DHT22;25786;51.504;7.344;2023-09-07T07:13:48;18.60;81.30
40085;DHT22;25786;51.504;7.344;2023-09-07T07:16:13;18.80;78.60
40085;DHT22;25786;51.504;7.344;2023-09-07T07:18:39;18.90;79.30
40085;DHT22;25786;51.504;7.344;2023-09-07T07:21:05;18.90;79.60
40085;DHT22;25786;51.504;7.344;2023-09-07T07:23:30;18.90;80.40
40085;DHT22;25786;51.504;7.344;2023-09-07T07:25:56;19.00;79.50
40085;DHT22;25786;51.504;7.344;2023-09-07T07:28:21;19.00;79.60
40085;DHT22;25786;51.504;7.344;2023-09-07T07:30:47;19.00;79.50
40085;DHT22;25786;51.504;7.344;2023-09-07T07:33:13;19.10;79.10
40085;DHT22;25786;51.504;7.344;2023-09-07T07:35:39;19.20;78.80
40085;DHT22;25786;51.504;7.344;2023-09-07T07:38:04;19.30;78.70
40085;DHT22;25786;51.504;7.344;2023-09-07T07:40:30;19.20;78.70
40085;DHT22;25786;51.504;7.344;2023-09-07T07:42:55;19.30;78.80
40085;DHT22;25786;51.504;7.344;2023-09-07T07:45:21;19.30;78.20
40085;DHT22;25786;51.504;7.344;2023-09-07T07:47:50;19.40;77.70
40085;DHT22;25786;51.504;7.344;2023-09-07T07:50:15;19.50;77.70
40085;DHT22;25786;51.504;7.344;2023-09-07T07:52:41;19.60;77.60
40085;DHT22;25786;51.504;7.344;2023-09-07T07:55:07;19.60;77.80
40085;DHT22;25786;51.504;7.344;2023-09-07T07:57:32;19.60;77.40
40085;DHT22;25786;51.504;7.344;2023-09-07T07:59:58;19.60;77.40
40085;DHT22;25786;51.504;7.344;2023-09-07T08:02:23;19.80;77.50
40085;DHT22;25786;51.504;7.344;2023-09-07T08:04:49;19.80;77.20
40085;DHT22;25786;51.504;7.344;2023-09-07T08:07:14;19.90;77.60
40085;DHT22;25786;51.504;7.344;2023-09-07T08:09:40;20.10;77.40
40085;DHT22;25786;51.504;7.344;2023-09-07T08:12:05;20.10;76.80
40085;DHT22;25786;51.504;7.344;2023-09-07T08:14:31;20.30;76.10
40085;DHT22;25786;51.504;7.344;2023-09-07T08:16:57;20.30;76.40
40085;DHT22;25786;51.504;7.344;2023-09-07T08:19:22;20.30;76.40
40085;DHT22;25786;51.504;7.344;2023-09-07T08:21:48;20.50;75.40
40085;DHT22;25786;51.504;7.344;2023-09-07T08:24:13;20.60;75.30
40085;DHT22;25786;51.504;7.344;2023-09-07T08:26:39;20.80;74.90
40085;DHT22;25786;51.504;7.344;2023-09-07T08:29:05;20.90;75.10
40085;DHT22;25786;51.504;7.344;2023-09-07T08:31:31;21.20;74.80
40085;DHT22;25786;51.504;7.344;2023-09-07T08:34:00;21.20;75.00
40085;DHT22;25786;51.504;7.344;2023-09-07T08:36:25;21.30;74.90
40085;DHT22;25786;51.504;7.344;2023-09-07T08:38:53;21.20;75.50
40085;DHT22;25786;51.504;7.344;2023-09-07T08:41:19;21.30;75.50
40085;DHT22;25786;51.504;7.344;2023-09-07T08:43:45;21.50;75.70
40085;DHT22;25786;51.504;7.344;2023-09-07T08:46:18;21.60;73.30
40085;DHT22;25786;51.504;7.344;2023-09-07T08:48:45;21.80;74.40
40085;DHT22;25786;51.504;7.344;2023-09-07T08:51:12;21.90;71.40
40085;DHT22;25786;51.504;7.344;2023-09-07T08:53:39;22.10;71.30
40085;DHT22;25786;51.504;7.344;2023-09-07T08:56:04;22.10;70.90
40085;DHT22;25786;51.504;7.344;2023-09-07T08:58:31;22.30;71.40
40085;DHT22;25786;51.504;7.344;2023-09-07T09:00:57;22.50;70.10
40085;DHT22;25786;51.504;7.344;2023-09-07T09:03:23;22.50;69.30
40085;DHT22;25786;51.504;7.344;2023-09-07T09:05:49;22.50;69.30
40085;DHT22;25786;51.504;7.344;2023-09-07T09:08:15;22.70;68.20
40085;DHT22;25786;51.504;7.344;2023-09-07T09:10:45;22.80;67.30
40085;DHT22;25786;51.504;7.344;2023-09-07T09:13:11;23.00;66.20
40085;DHT22;25786;51.504;7.344;2023-09-07T09:15:37;23.10;66.40
40085;DHT22;25786;51.504;7.344;2023-09-07T09:18:09;23.20;65.90
40085;DHT22;25786;51.504;7.344;2023-09-07T09:20:37;23.30;65.90
40085;DHT22;25786;51.504;7.344;2023-09-07T09:23:03;23.40;62.30
40085;DHT22;25786;51.504;7.344;2023-09-07T09:25:30;23.50;61.60
40085;DHT22;25786;51.504;7.344;2023-09-07T09:27:56;23.50;62.30
40085;DHT22;25786;51.504;7.344;2023-09-07T09:30:21;23.60;61.50
40085;DHT22;25786;51.504;7.344;2023-09-07T09:32:47;23.70;61.20
40085;DHT22;25786;51.504;7.344;2023-09-07T09:35:13;23.80;61.00
40085;DHT22;25786;51.504;7.344;2023-09-07T09:37:48;23.80;62.40
40085;DHT22;25786;51.504;7.344;2023-09-07T09:40:16;24.00;61.20
40085;DHT22;25786;51.504;7.344;2023-09-07T09:42:42;24.10;60.90
40085;DHT22;25786;51.504;7.344;2023-09-07T09:45:09;24.00;62.70
40085;DHT22;25786;51.504;7.344;2023-09-07T09:47:37;24.00;63.00
40085;DHT22;25786;51.504;7.344;2023-09-07T09:50:04;24.00;61.60
40085;DHT22;25786;51.504;7.344;2023-09-07T09:52:31;23.90;61.50
40085;DHT22;25786;51.504;7.344;2023-09-07T09:54:59;24.00;62.30
40085;DHT22;25786;51.504;7.344;2023-09-07T09:57:25;24.00;63.30
40085;DHT22;25786;51.504;7.344;2023-09-07T09:59:50;24.10;64.40
40085;DHT22;25786;51.504;7.344;2023-09-07T10:02:17;24.10;64.20
40085;DHT22;25786;51.504;7.344;2023-09-07T10:04:42;24.00;63.30
40085;DHT22;25786;51.504;7.344;2023-09-07T10:07:08;24.10;63.80
40085;DHT22;25786;51.504;7.344;2023-09-07T10:09:34;24.10;63.20
40085;DHT22;25786;51.504;7.344;2023-09-07T10:12:01;24.10;62.70
40085;DHT22;25786;51.504;7.344;2023-09-07T10:14:38;24.30;62.30
40085;DHT22;25786;51.504;7.344;2023-09-07T10:17:03;24.30;61.20
40085;DHT22;25786;51.504;7.344;2023-09-07T10:19:29;24.50;61.80
40085;DHT22;25786;51.504;7.344;2023-09-07T10:21:55;24.70;60.50
40085;DHT22;25786;51.504;7.344;2023-09-07T10:27:00;24.60;61.30
40085;DHT22;25786;51.504;7.344;2023-09-07T10:29:25;24.70;60.40
40085;DHT22;25786;51.504;7.344;2023-09-07T10:31:51;24.70;62.20
40085;DHT22;25786;51.504;7.344;2023-09-07T10:34:17;24.80;63.00
40085;DHT22;25786;51.504;7.344;2023-09-07T10:36:42;24.90;60.10
40085;DHT22;25786;51.504;7.344;2023-09-07T10:39:08;24.80;61.40
40085;DHT22;25786;51.504;7.344;2023-09-07T10:41:41;24.90;59.20
40085;DHT22;25786;51.504;7.344;2023-09-07T10:44:07;25.00;60.80
40085;DHT22;25786;51.504;7.344;2023-09-07T10:46:33;25.00;60.70
40085;DHT22;25786;51.504;7.344;2023-09-07T10:48:58;25.00;60.00
40085;DHT22;25786;51.504;7.344;2023-09-07T10:51:24;25.30;58.80
40085;DHT22;25786;51.504;7.344;2023-09-07T10:53:49;25.30;59.50
40085;DHT22;25786;51.504;7.344;2023-09-07T10:56:15;25.20;60.90
40085;DHT22;25786;51.504;7.344;2023-09-07T10:58:40;25.20;60.80
40085;DHT22;25786;51.504;7.344;2023-09-07T11:01:10;25.30;59.10
40085;DHT22;25786;51.504;7.344;2023-09-07T11:03:36;25.30;59.20
40085;DHT22;25786;51.504;7.344;2023-09-07T11:06:06;25.40;57.70
40085;DHT22;25786;51.504;7.344;2023-09-07T11:08:34;25.50;58.50
40085;DHT22;25786;51.504;7.344;2023-09-07T11:11:00;25.50;59.10
40085;DHT22;25786;51.504;7.344;2023-09-07T11:13:25;25.50;58.80
40085;DHT22;25786;51.504;7.344;2023-09-07T11:15:55;25.50;59.20
40085;DHT22;25786;51.504;7.344;2023-09-07T11:18:21;25.50;58.70
40085;DHT22;25786;51.504;7.344;2023-09-07T11:20:48;25.70;57.70
40085;DHT22;25786;51.504;7.344;2023-09-07T11:23:13;25.70;57.90
40085;DHT22;25786;51.504;7.344;2023-09-07T11:25:39;25.60;59.00
40085;DHT22;25786;51.504;7.344;2023-09-07T11:28:04;25.80;59.20
40085;DHT22;25786;51.504;7.344;2023-09-07T11:30:30;25.60;58.10
40085;DHT22;25786;51.504;7.344;2023-09-07T11:33:00;25.60;58.70
40085;DHT22;25786;51.504;7.344;2023-09-07T11:35:25;25.80;57.90
40085;DHT22;25786;51.504;7.344;2023-09-07T11:37:51;25.70;58.70
40085;DHT22;25786;51.504;7.344;2023-09-07T11:40:17;25.60;58.40
40085;DHT22;25786;51.504;7.344;2023-09-07T11:42:42;25.80;60.90
40085;DHT22;25786;51.504;7.344;2023-09-07T11:45:08;25.90;61.40
40085;DHT22;25786;51.504;7.344;2023-09-07T11:47:34;25.90;58.00
40085;DHT22;25786;51.504;7.344;2023-09-07T11:50:01;25.80;59.70
40085;DHT22;25786;51.504;7.344;2023-09-07T11:52:26;26.00;58.00
40085;DHT22;25786;51.504;7.344;2023-09-07T11:54:51;26.00;59.40
40085;DHT22;25786;51.504;7.344;2023-09-07T11:57:17;26.00;58.90
40085;DHT22;25786;51.504;7.344;2023-09-07T11:59:42;26.00;58.20
40085;DHT22;25786;51.504;7.344;2023-09-07T12:02:08;26.00;58.60
40085;DHT22;25786;51.504;7.344;2023-09-07T12:04:37;26.00;58.00
40085;DHT22;25786;51.504;7.344;2023-09-07T12:07:03;26.00;59.30
40085;DHT22;25786;51.504;7.344;2023-09-07T12:09:29;26.00;57.60
40085;DHT22;25786;51.504;7.344;2023-09-07T12:11:54;26.00;59.30
40085;DHT22;25786;51.504;7.344;2023-09-07T12:14:20;26.00;59.60
40085;DHT22;25786;51.504;7.344;2023-09-07T12:16:45;26.00;58.20
40085;DHT22;25786;51.504;7.344;2023-09-07T12:19:11;26.10;59.30
40085;DHT22;25786;51.504;7.344;2023-09-07T12:21:36;26.30;56.30
40085;DHT22;25786;51.504;7.344;2023-09-07T12:24:02;26.40;55.90
40085;DHT22;25786;51.504;7.344;2023-09-07T12:26:27;26.50;56.60
40085;DHT22;25786;51.504;7.344;2023-09-07T12:28:53;26.60;53.20
40085;DHT22;25786;51.504;7.344;2023-09-07T12:31:18;26.60;56.50
40085;DHT22;25786;51.504;7.344;2023-09-07T12:33:44;26.60;58.50
40085;DHT22;25786;51.504;7.344;2023-09-07T12:36:09;26.50;57.10
40085;DHT22;25786;51.504;7.344;2023-09-07T12:38:36;26.60;58.90
40085;DHT22;25786;51.504;7.344;2023-09-07T12:41:02;26.80;58.60
40085;DHT22;25786;51.504;7.344;2023-09-07T12:43:27;27.00;58.10
40085;DHT22;25786;51.504;7.344;2023-09-07T12:45:53;27.10;57.00
40085;DHT22;25786;51.504;7.344;2023-09-07T12:48:19;27.00;58.20
40085;DHT22;25786;51.504;7.344;2023-09-07T12:50:45;27.00;59.20
40085;DHT22;25786;51.504;7.344;2023-09-07T12:53:10;27.00;59.00
40085;DHT22;25786;51.504;7.344;2023-09-07T12:55:36;27.10;59.80
40085;DHT22;25786;51.504;7.344;2023-09-07T12:58:01;27.20;57.10
40085;DHT22;25786;51.504;7.344;2023-09-07T13:00:27;27.30;57.10
40085;DHT22;25786;51.504;7.344;2023-09-07T13:02:54;27.30;58.00
40085;DHT22;25786;51.504;7.344;2023-09-07T13:05:19;27.20;57.30
40085;DHT22;25786;51.504;7.344;2023-09-07T13:07:45;27.20;57.60
40085;DHT22;25786;51.504;7.344;2023-09-07T13:10:11;27.10;56.80
40085;DHT22;25786;51.504;7.344;2023-09-07T13:12:36;27.10;57.70
40085;DHT22;25786;51.504;7.344;2023-09-07T13:15:02;27.10;59.60
40085;DHT22;25786;51.504;7.344;2023-09-07T13:17:28;27.30;58.00
40085;DHT22;25786;51.504;7.344;2023-09-07T13:19:53;27.30;56.90
40085;DHT22;25786;51.504;7.344;2023-09-07T13:22:19;27.30;57.00
40085;DHT22;25786;51.504;7.344;2023-09-07T13:24:44;27.30;58.70
40085;DHT22;25786;51.504;7.344;2023-09-07T13:27:10;27.30;59.30
40085;DHT22;25786;51.504;7.344;2023-09-07T13:29:35;27.40;58.50
40085;DHT22;25786;51.504;7.344;2023-09-07T13:32:01;27.50;56.20
40085;DHT22;25786;51.504;7.344;2023-09-07T13:34:27;27.60;54.80
40085;DHT22;25786;51.504;7.344;2023-09-07T13:36:52;27.50;56.00
40085;DHT22;25786;51.504;7.344;2023-09-07T13:39:18;27.50;56.00
40085;DHT22;25786;51.504;7.344;2023-09-07T13:41:44;27.50;57.20
40085;DHT22;25786;51.504;7.344;2023-09-07T13:44:09;27.60;56.30
40085;DHT22;25786;51.504;7.344;2023-09-07T13:46:35;27.60;54.90
40085;DHT22;25786;51.504;7.344;2023-09-07T13:49:01;27.60;55.50
40085;DHT22;25786;51.504;7.344;2023-09-07T13:51:26;27.70;55.50
40085;DHT22;25786;51.504;7.344;2023-09-07T13:53:51;27.80;53.70
40085;DHT22;25786;51.504;7.344;2023-09-07T13:56:17;27.80;54.30
40085;DHT22;25786;51.504;7.344;2023-09-07T13:58:43;27.80;53.10
40085;DHT22;25786;51.504;7.344;2023-09-07T14:01:08;28.00;53.00
40085;DHT22;25786;51.504;7.344;2023-09-07T14:03:34;27.90;53.40
40085;DHT22;25786;51.504;7.344;2023-09-07T14:05:59;28.10;53.50
40085;DHT22;25786;51.504;7.344;2023-09-07T14:08:25;28.00;53.30
40085;DHT22;25786;51.504;7.344;2023-09-07T14:10:50;28.10;53.50
40085;DHT22;25786;51.504;7.344;2023-09-07T14:13:17;28.00;52.90
40085;DHT22;25786;51.504;7.344;2023-09-07T14:15:42;28.00;52.00
40085;DHT22;25786;51.504;7.344;2023-09-07T14:18:08;28.10;53.20
40085;DHT22;25786;51.504;7.344;2023-09-07T14:20:33;28.10;51.90
40085;DHT22;25786;51.504;7.344;2023-09-07T14:22:59;28.20;51.10
40085;DHT22;25786;51.504;7.344;2023-09-07T14:25:26;28.20;53.20
40085;DHT22;25786;51.504;7.344;2023-09-07T14:27:51;28.20;50.20
40085;DHT22;25786;51.504;7.344;2023-09-07T14:30:17;28.20;50.20
40085;DHT22;25786;51.504;7.344;2023-09-07T14:32:43;28.30;49.40
40085;DHT22;25786;51.504;7.344;2023-09-07T14:35:09;28.30;51.30
40085;DHT22;25786;51.504;7.344;2023-09-07T14:37:35;28.10;51.10
40085;DHT22;25786;51.504;7.344;2023-09-07T14:40:00;28.20;51.10
40085;DHT22;25786;51.504;7.344;2023-09-07T14:42:26;28.20;51.10
40085;DHT22;25786;51.504;7.344;2023-09-07T14:44:51;28.30;49.40
40085;DHT22;25786;51.504;7.344;2023-09-07T14:47:17;28.30;50.90
40085;DHT22;25786;51.504;7.344;2023-09-07T14:49:42;28.10;50.20
40085;DHT22;25786;51.504;7.344;2023-09-07T14:52:08;28.20;49.70
40085;DHT22;25786;51.504;7.344;2023-09-07T14:54:33;28.20;49.50
40085;DHT22;25786;51.504;7.344;2023-09-07T14:56:59;28.20;50.70
40085;DHT22;25786;51.504;7.344;2023-09-07T14:59:24;28.20;50.10
40085;DHT22;25786;51.504;7.344;2023-09-07T15:01:49;28.20;49.60
40085;DHT22;25786;51.504;7.344;2023-09-07T15:04:15;28.40;50.10
40085;DHT22;25786;51.504;7.344;2023-09-07T15:06:41;28.40;49.10
40085;DHT22;25786;51.504;7.344;2023-09-07T15:09:06;28.30;48.70
40085;DHT22;25786;51.504;7.344;2023-09-07T15:11:32;28.30;49.50
40085;DHT22;25786;51.504;7.344;2023-09-07T15:13:57;28.30;49.10
40085;DHT22;25786;51.504;7.344;2023-09-07T15:16:23;28.30;49.90
40085;DHT22;25786;51.504;7.344;2023-09-07T15:18:49;28.30;48.80
40085;DHT22;25786;51.504;7.344;2023-09-07T15:21:17;28.30;49.80
40085;DHT22;25786;51.504;7.344;2023-09-07T15:23:42;28.30;49.20
40085;DHT22;25786;51.504;7.344;2023-09-07T15:26:08;28.20;49.60
40085;DHT22;25786;51.504;7.344;2023-09-07T15:28:33;28.20;49.10
40085;DHT22;25786;51.504;7.344;2023-09-07T15:30:59;28.20;49.60
40085;DHT22;25786;51.504;7.344;2023-09-07T15:33:24;28.20;49.80